createdAt,value
2019-04-11T00:00:48.113Z,72.40
2019-04-11T00:01:51.497Z,72.11
2019-04-11T00:02:49.045Z,72.68
2019-04-11T00:03:47.993Z,72.97
2019-04-11T00:04:48.522Z,72.68
2019-04-11T00:05:47.940Z,73.07
2019-04-11T00:06:47.943Z,72.88
2019-04-11T00:07:48.836Z,72.78
2019-04-11T00:08:48.166Z,72.78
2019-04-11T00:09:49.060Z,72.97
2019-04-11T00:10:47.794Z,72.78
2019-04-11T00:11:48.291Z,73.16
2019-04-11T00:12:48.512Z,72.59
2019-04-11T00:13:47.762Z,72.59
2019-04-11T00:14:48.400Z,73.16
2019-04-11T00:15:48.583Z,73.54
2019-04-11T00:16:47.728Z,73.44
2019-04-11T00:17:47.579Z,73.92
2019-04-11T00:18:47.551Z,73.63
2019-04-11T00:19:47.581Z,74.01
2019-04-11T00:20:48.435Z,74.20
2019-04-11T00:21:47.490Z,74.30
2019-04-11T00:22:47.884Z,74.20
2019-04-11T00:23:48.293Z,74.20
2019-04-11T00:24:47.411Z,74.45
2019-04-11T00:25:47.519Z,74.49
2019-04-11T00:26:48.600Z,74.54
2019-04-11T00:27:47.300Z,74.64
2019-04-11T00:28:47.973Z,74.64
2019-04-11T00:29:47.233Z,74.83
2019-04-11T00:30:48.289Z,74.83
2019-04-11T00:31:48.021Z,74.83
2019-04-11T00:32:47.167Z,74.92
2019-04-11T00:33:47.113Z,75.21
2019-04-11T00:34:47.092Z,75.02
2019-04-11T00:35:48.073Z,75.68
2019-04-11T00:36:47.022Z,75.31
2019-04-11T00:37:47.458Z,75.11
2019-04-11T00:38:47.842Z,75.02
2019-04-11T00:39:47.871Z,75.31
2019-04-11T00:40:46.903Z,75.68
2019-04-11T00:41:48.145Z,75.49
2019-04-11T00:42:47.127Z,75.21
2019-04-11T00:43:46.975Z,75.68
2019-04-11T00:44:48.006Z,75.59
2019-04-11T00:45:47.698Z,76.15
2019-04-11T00:46:46.831Z,76.06
2019-04-11T00:47:47.026Z,76.34
2019-04-11T00:48:46.744Z,76.06
2019-04-11T00:49:46.641Z,76.63
2019-04-11T00:50:47.583Z,76.25
2019-04-11T00:51:47.712Z,76.34
2019-04-11T00:52:47.587Z,76.82
2019-04-11T00:53:46.585Z,76.63
2019-04-11T00:54:46.983Z,76.92
2019-04-11T00:55:46.474Z,77.11
2019-04-11T00:56:46.432Z,77.20
2019-04-11T00:57:47.381Z,77.01
2019-04-11T00:58:46.392Z,77.01
2019-04-11T00:59:46.792Z,76.92
2019-04-11T01:00:47.158Z,77.20
2019-04-11T01:01:47.100Z,77.67
2019-04-11T01:02:47.382Z,77.29
2019-04-11T01:03:47.458Z,77.39
2019-04-11T01:04:46.191Z,77.39
2019-04-11T01:05:46.231Z,77.48
2019-04-11T01:06:46.700Z,77.77
2019-04-11T01:07:47.108Z,77.67
2019-04-11T01:08:46.154Z,77.77
2019-04-11T01:09:46.054Z,77.77
2019-04-11T01:10:46.060Z,77.77
2019-04-11T01:11:45.984Z,77.77
2019-04-11T01:12:46.929Z,77.77
2019-04-11T01:13:50.866Z,77.73
2019-04-11T01:14:46.901Z,78.11
2019-04-11T01:15:46.872Z,78.49
2019-04-11T01:16:45.892Z,78.02
2019-04-11T01:17:45.800Z,78.49
2019-04-11T01:18:46.503Z,78.49
2019-04-11T01:19:46.798Z,78.30
2019-04-11T01:20:46.030Z,78.49
2019-04-11T01:21:45.703Z,78.49
2019-04-11T01:22:46.599Z,78.39
2019-04-11T01:23:45.621Z,78.67
2019-04-11T01:24:46.061Z,78.67
2019-04-11T01:25:46.447Z,78.49
2019-04-11T01:26:45.565Z,78.39
2019-04-11T01:27:45.906Z,78.49
2019-04-11T01:28:45.472Z,78.49
2019-04-11T01:29:45.440Z,78.49
2019-04-11T01:30:45.424Z,78.30
2019-04-11T01:31:46.234Z,78.96
2019-04-11T01:32:46.453Z,78.67
2019-04-11T01:33:46.269Z,78.96
2019-04-11T01:34:45.301Z,78.77
2019-04-11T01:35:45.745Z,78.67
2019-04-11T01:36:45.232Z,78.67
2019-04-11T01:37:46.135Z,78.67
2019-04-11T01:38:46.329Z,78.77
2019-04-11T01:39:45.369Z,79.25
2019-04-11T01:40:45.631Z,79.25
2019-04-11T01:41:45.132Z,79.15
2019-04-11T01:42:45.053Z,79.15
2019-04-11T01:43:53.927Z,79.25
2019-04-11T01:44:45.954Z,79.53
2019-04-11T01:45:45.570Z,79.63
2019-04-11T01:46:44.951Z,79.72
2019-04-11T01:47:44.912Z,79.44
2019-04-11T01:48:45.860Z,79.63
2019-04-11T01:49:44.857Z,79.63
2019-04-11T01:50:45.275Z,79.44
2019-04-11T01:51:45.562Z,79.44
2019-04-11T01:52:44.792Z,79.44
2019-04-11T01:53:44.733Z,80.10
2019-04-11T01:54:45.930Z,79.72
2019-04-11T01:55:45.011Z,79.82
2019-04-11T01:56:47.568Z,80.00
2019-04-11T01:57:44.743Z,79.91
2019-04-11T01:58:44.713Z,80.10
2019-04-11T01:59:45.814Z,80.10
2019-04-11T02:00:44.512Z,80.38
2019-04-11T02:01:45.182Z,80.48
2019-04-11T02:02:44.467Z,80.19
2019-04-11T02:03:45.510Z,80.29
2019-04-11T02:04:44.453Z,80.57
2019-04-11T02:05:45.316Z,80.76
2019-04-11T02:06:44.362Z,80.76
2019-04-11T02:07:44.893Z,80.57
2019-04-11T02:08:44.271Z,80.67
2019-04-11T02:09:44.311Z,80.76
2019-04-11T02:10:45.293Z,80.95
2019-04-11T02:11:44.181Z,80.86
2019-04-11T02:12:44.202Z,81.24
2019-04-11T02:13:44.111Z,81.33
2019-04-11T02:14:44.094Z,81.20
2019-04-11T02:15:44.244Z,81.10
2019-04-11T02:16:45.319Z,81.52
2019-04-11T02:17:43.992Z,80.95
2019-04-11T02:18:44.030Z,81.67
2019-04-11T02:19:44.768Z,81.33
2019-04-11T02:20:44.967Z,81.62
2019-04-11T02:21:44.176Z,81.48
2019-04-11T02:22:43.952Z,81.67
2019-04-11T02:23:43.813Z,81.81
2019-04-11T02:24:43.865Z,81.48
2019-04-11T02:25:44.856Z,81.14
2019-04-11T02:26:46.556Z,81.48
2019-04-11T02:27:44.270Z,82.24
2019-04-11T02:28:44.613Z,81.76
2019-04-11T02:29:44.735Z,81.76
2019-04-11T02:30:45.760Z,81.57
2019-04-11T02:31:44.542Z,81.57
2019-04-11T02:32:45.483Z,82.14
2019-04-11T02:33:43.537Z,81.76
2019-04-11T02:34:43.868Z,81.76
2019-04-11T02:35:46.055Z,81.67
2019-04-11T02:36:44.811Z,81.67
2019-04-11T02:37:44.459Z,81.57
2019-04-11T02:38:44.062Z,81.95
2019-04-11T02:39:43.352Z,81.76
2019-04-11T02:40:45.286Z,82.33
2019-04-11T02:41:44.558Z,82.33
2019-04-11T02:42:43.484Z,82.52
2019-04-11T02:43:44.421Z,82.52
2019-04-11T02:44:59.886Z,82.05
2019-04-11T02:45:56.906Z,82.33
2019-04-11T02:46:53.293Z,82.24
2019-04-11T02:47:45.794Z,82.33
2019-04-11T02:48:44.820Z,82.52
2019-04-11T02:49:43.663Z,82.43
2019-04-11T02:50:43.475Z,82.52
2019-04-11T02:51:43.521Z,82.81
2019-04-11T02:52:44.468Z,82.81
2019-04-11T02:53:42.910Z,82.90
2019-04-11T02:54:43.107Z,82.52
2019-04-11T02:55:43.827Z,82.71
2019-04-11T02:56:44.696Z,82.52
2019-04-11T02:57:43.084Z,82.81
2019-04-11T02:58:44.147Z,83.09
2019-04-11T02:59:43.227Z,82.81
2019-04-11T03:00:44.568Z,82.71
2019-04-11T03:01:43.916Z,82.81
2019-04-11T03:02:44.507Z,83.09
2019-04-11T03:03:42.959Z,83.28
2019-04-11T03:04:43.928Z,83.00
2019-04-11T03:05:44.055Z,83.09
2019-04-11T03:06:43.922Z,83.00
2019-04-11T03:07:42.591Z,83.18
2019-04-11T03:08:43.501Z,83.56
2019-04-11T03:09:44.061Z,83.47
2019-04-11T03:10:43.001Z,83.66
2019-04-11T03:11:42.986Z,83.18
2019-04-11T03:12:43.640Z,83.47
2019-04-11T03:13:44.232Z,83.56
2019-04-11T03:15:01.113Z,83.37
2019-04-11T03:15:56.751Z,83.66
2019-04-11T03:16:53.419Z,83.37
2019-04-11T03:17:44.610Z,83.66
2019-04-11T03:18:59.362Z,84.23
2019-04-11T03:19:57.903Z,84.04
2019-04-11T03:20:48.323Z,83.94
2019-04-11T03:21:46.599Z,84.32
2019-04-11T03:22:42.535Z,84.09
2019-04-11T03:23:43.851Z,84.23
2019-04-11T03:24:42.853Z,84.23
2019-04-11T03:25:42.726Z,84.13
2019-04-11T03:26:43.450Z,84.04
2019-04-11T03:27:43.312Z,84.23
2019-04-11T03:28:45.147Z,84.47
2019-04-11T03:29:43.134Z,84.28
2019-04-11T03:30:59.213Z,84.70
2019-04-11T03:32:17.395Z,84.89
2019-04-11T03:33:43.811Z,85.17
2019-04-11T03:38:03.618Z,85.17
2019-04-11T03:39:04.112Z,84.80
2019-04-11T03:40:00.151Z,84.80
2019-04-11T03:40:57.884Z,84.61
2019-04-11T03:42:02.700Z,84.80
2019-04-11T03:42:54.338Z,85.32
2019-04-11T03:43:50.986Z,85.17
2019-04-11T03:44:47.287Z,85.36
2019-04-11T03:46:01.916Z,85.36
2019-04-11T03:46:55.751Z,85.08
2019-04-11T03:47:57.624Z,84.94
2019-04-11T03:48:53.284Z,85.08
2019-04-11T03:49:50.441Z,85.13
2019-04-11T03:50:42.472Z,85.04
2019-04-11T03:51:43.037Z,85.23
2019-04-11T03:52:41.095Z,85.42
2019-04-11T03:53:41.556Z,85.42
2019-04-11T03:54:42.677Z,85.32
2019-04-11T03:55:41.089Z,85.51
2019-04-11T03:56:41.349Z,85.70
2019-04-11T03:57:41.719Z,85.55
2019-04-11T03:58:41.876Z,85.89
2019-04-11T03:59:40.869Z,85.32
2019-04-11T04:00:43.780Z,85.70
2019-04-11T06:46:54.861Z,87.02
2019-04-11T07:42:49.647Z,82.31
2019-04-11T07:43:48.173Z,82.40
2019-04-11T07:45:52.405Z,81.84
2019-04-11T07:46:52.107Z,81.74
2019-04-11T07:48:56.102Z,81.74
2019-04-11T07:49:57.223Z,81.45
2019-04-11T07:52:00.337Z,80.13
2019-04-11T07:53:01.410Z,80.41
2019-04-11T07:55:04.663Z,80.03
2019-04-11T07:56:05.007Z,80.03
2019-04-11T07:57:56.793Z,80.13
2019-04-11T07:58:56.683Z,79.97
2019-04-11T08:01:01.459Z,79.69
2019-04-11T08:02:01.581Z,79.60
2019-04-11T08:04:04.622Z,79.03
2019-04-11T08:05:04.539Z,78.83
2019-04-11T08:06:05.220Z,78.17
2019-04-11T08:07:04.493Z,77.51
2019-04-11T08:08:06.284Z,78.83
2019-04-11T08:09:05.040Z,78.08
2019-04-11T08:10:04.424Z,77.51
2019-04-11T08:11:04.451Z,76.93
2019-04-11T08:12:04.585Z,77.70
2019-04-11T08:13:04.271Z,77.60
2019-04-11T08:14:04.333Z,78.27
2019-04-11T08:15:04.889Z,78.64
2019-04-11T08:16:04.412Z,79.25
2019-04-11T08:17:04.154Z,78.50
2019-04-11T08:18:04.183Z,78.11
2019-04-11T08:19:04.162Z,78.30
2019-04-11T08:20:05.019Z,77.92
2019-04-11T08:21:04.074Z,77.73
2019-04-11T08:22:04.015Z,77.45
2019-04-11T08:23:04.014Z,76.88
2019-04-11T08:24:04.466Z,76.97
2019-04-11T08:25:04.944Z,77.36
2019-04-11T08:26:04.052Z,76.31
2019-04-11T08:27:03.969Z,76.31
2019-04-11T08:28:05.882Z,75.84
2019-04-11T08:29:09.277Z,76.12
2019-04-11T08:30:03.833Z,75.55
2019-04-11T08:31:03.731Z,75.74
2019-04-11T08:32:04.618Z,75.55
2019-04-11T08:33:04.486Z,75.30
2019-04-11T08:34:04.874Z,75.59
2019-04-11T08:35:03.967Z,75.59
2019-04-11T08:36:03.594Z,75.11
2019-04-11T08:37:03.583Z,75.30
2019-04-11T08:38:04.532Z,74.35
2019-04-11T08:39:04.849Z,74.35
2019-04-11T08:40:03.914Z,74.54
2019-04-11T08:41:03.462Z,73.97
2019-04-11T08:42:03.421Z,73.69
2019-04-11T08:43:04.565Z,73.88
2019-04-11T08:44:03.657Z,74.44
2019-04-11T08:45:04.065Z,73.88
2019-04-11T08:46:04.596Z,73.15
2019-04-11T08:47:04.314Z,72.58
2019-04-11T08:48:04.435Z,72.20
2019-04-11T08:49:03.676Z,71.82
2019-04-11T08:50:03.926Z,72.01
2019-04-11T08:51:03.171Z,71.91
2019-04-11T08:52:03.554Z,71.34
2019-04-11T08:53:03.102Z,72.20
2019-04-11T08:54:03.186Z,72.20
2019-04-11T08:55:04.114Z,71.25
2019-04-11T08:56:03.985Z,70.87
2019-04-11T08:57:03.360Z,71.25
2019-04-11T08:58:02.971Z,71.63
2019-04-11T08:59:02.954Z,71.34
2019-04-11T09:00:04.161Z,70.87
2019-04-11T09:01:03.411Z,70.68
2019-04-11T09:02:03.006Z,71.28
2019-04-11T09:03:02.952Z,70.81
2019-04-11T09:04:07.335Z,70.62
2019-04-11T09:05:09.865Z,71.76
2019-04-11T09:06:04.231Z,70.81
2019-04-11T09:07:03.273Z,68.90
2019-04-11T09:08:02.686Z,68.43
2019-04-11T09:09:02.980Z,68.43
2019-04-11T09:10:03.717Z,68.43
2019-04-11T09:11:02.613Z,68.33
2019-04-11T09:12:02.626Z,67.70
2019-04-11T09:13:02.811Z,68.27
2019-04-11T09:14:02.512Z,67.89
2019-04-11T09:15:02.665Z,66.66
2019-04-11T09:16:03.499Z,65.51
2019-04-11T09:17:02.448Z,65.51
2019-04-11T09:18:06.367Z,64.18
2019-04-11T09:19:03.587Z,64.50
2019-04-11T09:20:03.309Z,63.26
2019-04-11T09:21:02.444Z,62.72
2019-04-11T09:22:02.622Z,62.62
2019-04-11T09:23:02.276Z,62.34
2019-04-11T09:24:02.284Z,61.80
2019-04-11T09:25:03.331Z,61.80
2019-04-11T09:26:03.498Z,61.44
2019-04-11T09:27:02.462Z,60.68
2019-04-11T09:28:02.865Z,59.47
2019-04-11T09:29:02.213Z,58.42
2019-04-11T09:30:02.546Z,58.70
2019-04-11T09:31:03.582Z,58.73
2019-04-11T09:32:02.287Z,57.02
2019-04-11T09:33:02.032Z,55.20
2019-04-11T09:34:01.963Z,55.61
2019-04-11T09:35:02.069Z,54.37
2019-04-11T09:36:01.941Z,53.06
2019-04-11T09:37:03.052Z,54.11
2019-04-11T09:38:02.248Z,55.29
2019-04-11T09:39:02.585Z,53.66
2019-04-11T09:40:01.875Z,52.39
2019-04-11T09:41:01.794Z,52.77
2019-04-11T09:42:02.927Z,53.75
2019-04-11T09:43:01.865Z,54.07
2019-04-11T09:44:01.713Z,52.06
2019-04-11T09:45:01.703Z,50.12
2019-04-11T09:46:02.030Z,48.75
2019-04-11T09:47:01.642Z,48.73
2019-04-11T09:48:08.544Z,49.78
2019-04-11T09:49:02.408Z,50.84
2019-04-11T09:50:02.323Z,49.98
2019-04-11T09:51:01.523Z,49.47
2019-04-11T09:52:02.551Z,49.35
2019-04-11T09:53:01.603Z,49.73
2019-04-11T09:54:01.554Z,50.47
2019-04-11T09:55:01.411Z,51.52
2019-04-11T09:56:02.566Z,51.90
2019-04-11T09:57:02.290Z,51.71
2019-04-11T09:58:02.778Z,52.38
2019-04-11T09:59:02.343Z,52.95
2019-04-11T10:00:01.854Z,54.00
2019-04-11T10:01:01.688Z,54.32
2019-04-11T10:02:10.090Z,54.29
2019-04-11T10:04:06.448Z,54.22
2019-04-11T10:05:05.413Z,54.50
2019-04-11T10:07:09.511Z,54.50
2019-04-11T10:08:10.568Z,53.45
2019-04-11T10:10:13.316Z,52.59
2019-04-11T10:11:13.522Z,53.00
2019-04-11T10:13:18.497Z,52.58
2019-04-11T10:14:17.612Z,49.93
2019-04-11T10:16:22.090Z,46.96
2019-04-11T10:17:23.385Z,46.17
2019-04-11T10:19:27.599Z,47.23
2019-04-11T10:20:25.150Z,47.20
2019-04-11T10:22:29.222Z,47.18
2019-04-11T10:23:29.247Z,46.89
2019-04-11T10:25:32.930Z,48.71
2019-04-11T10:26:34.061Z,49.23
2019-04-11T10:28:37.565Z,47.73
2019-04-11T10:29:36.872Z,48.42
2019-04-11T10:31:40.773Z,44.54
2019-04-11T10:32:41.399Z,45.31
2019-04-11T10:34:45.814Z,44.70
2019-04-11T10:35:44.641Z,42.30
2019-04-11T10:37:37.971Z,42.43
2019-04-11T10:38:38.314Z,42.35
2019-04-11T10:40:42.413Z,42.08
2019-04-11T10:41:42.324Z,40.47
2019-04-11T10:43:47.476Z,38.72
2019-04-11T10:44:46.330Z,37.35
2019-04-11T10:46:51.372Z,37.01
2019-04-11T10:47:51.264Z,37.97
2019-04-11T10:49:54.648Z,40.75
2019-04-11T10:50:54.263Z,41.44
2019-04-11T10:53:00.505Z,39.12
2019-04-11T10:53:59.687Z,37.93
2019-04-11T10:56:04.236Z,39.33
2019-04-11T10:57:03.526Z,41.36
2019-04-11T10:59:07.330Z,42.27
2019-04-11T11:00:07.263Z,42.30
2019-04-11T11:02:00.424Z,42.06
2019-04-11T11:03:00.302Z,42.08
2019-04-11T11:05:05.264Z,39.39
2019-04-11T11:06:05.427Z,39.49
2019-04-11T11:07:57.361Z,37.74
2019-04-11T11:08:57.574Z,37.64
2019-04-11T11:11:01.372Z,38.51
2019-04-11T11:12:01.285Z,39.56
2019-04-11T11:14:05.326Z,39.39
2019-04-11T11:15:05.290Z,38.81
2019-04-11T11:17:09.400Z,38.74
2019-04-11T11:18:44.021Z,39.22
2019-04-11T11:19:33.804Z,37.77
2019-04-11T11:20:21.215Z,35.93
2019-04-11T11:21:09.404Z,37.59
2019-04-11T11:22:10.459Z,37.87
2019-04-11T11:23:11.500Z,37.30
2019-04-11T11:24:10.750Z,37.39
2019-04-11T11:25:12.726Z,36.72
2019-04-11T11:26:09.139Z,36.62
2019-04-11T11:27:09.427Z,39.12
2019-04-11T11:28:09.475Z,39.43
2019-04-11T11:29:13.610Z,36.91
2019-04-11T11:30:09.151Z,36.43
2019-04-11T11:31:09.020Z,38.16
2019-04-11T11:32:09.251Z,37.37
2019-04-11T11:33:09.979Z,37.57
2019-04-11T11:34:09.254Z,37.08
2019-04-11T11:35:08.983Z,36.49
2019-04-11T11:36:10.733Z,35.40
2019-04-11T11:37:09.033Z,35.67
2019-04-11T11:38:09.360Z,37.68
2019-04-11T11:39:08.929Z,37.68
2019-04-11T11:40:13.216Z,39.31
2019-04-11T11:41:08.941Z,40.20
2019-04-11T11:42:08.791Z,39.93
2019-04-11T11:43:08.791Z,42.06
2019-04-11T11:44:09.746Z,39.29
2019-04-11T11:45:08.989Z,38.84
2019-04-11T11:46:10.001Z,40.37
2019-04-11T11:47:09.861Z,38.18
2019-04-11T11:48:13.702Z,37.70
2019-04-11T11:49:08.661Z,37.41
2019-04-11T11:50:15.626Z,36.05
2019-04-11T11:51:08.914Z,34.97
2019-04-11T11:52:08.940Z,34.76
2019-04-11T11:53:11.845Z,34.82
2019-04-11T11:54:08.532Z,35.97
2019-04-11T11:55:08.633Z,37.32
2019-04-11T11:56:09.532Z,38.37
2019-04-11T11:57:08.736Z,38.56
2019-04-11T11:58:09.039Z,39.16
2019-04-11T11:59:09.131Z,38.10
2019-04-11T12:00:09.159Z,38.79
2019-04-11T12:01:09.410Z,37.64
2019-04-11T12:02:08.535Z,37.85
2019-04-11T12:03:08.671Z,36.03
2019-04-11T12:04:08.675Z,37.95
2019-04-11T12:05:12.937Z,38.07
2019-04-11T12:06:09.626Z,35.38
2019-04-11T12:07:08.643Z,35.95
2019-04-11T12:08:10.836Z,36.24
2019-04-11T12:09:08.222Z,37.10
2019-04-11T12:10:09.079Z,37.20
2019-04-11T12:11:08.219Z,36.05
2019-04-11T12:12:08.227Z,38.54
2019-04-11T12:13:11.117Z,37.22
2019-04-11T12:14:08.244Z,36.64
2019-04-11T12:15:08.102Z,37.99
2019-04-11T12:16:08.081Z,38.49
2019-04-11T12:17:08.492Z,38.97
2019-04-11T12:18:09.548Z,37.34
2019-04-11T12:19:08.796Z,37.81
2019-04-11T12:20:11.618Z,36.76
2019-04-11T12:21:09.352Z,35.60
2019-04-11T12:22:08.474Z,34.74
2019-04-11T12:23:08.748Z,34.83
2019-04-11T12:24:08.513Z,36.47
2019-04-11T12:25:09.119Z,35.79
2019-04-11T12:26:10.558Z,36.58
2019-04-11T12:27:08.665Z,34.64
2019-04-11T12:28:13.194Z,34.35
2019-04-11T12:29:08.299Z,36.18
2019-04-11T12:30:09.519Z,37.72
2019-04-11T12:31:07.844Z,36.47
2019-04-11T12:32:08.301Z,35.02
2019-04-11T12:33:08.858Z,36.37
2019-04-11T12:34:08.166Z,36.49
2019-04-11T12:35:08.149Z,36.29
2019-04-11T12:36:07.784Z,35.89
2019-04-11T12:37:08.482Z,34.03
2019-04-11T12:38:07.630Z,34.61
2019-04-11T12:39:07.615Z,35.47
2019-04-11T12:40:09.555Z,36.70
2019-04-11T12:41:07.572Z,37.49
2019-04-11T12:42:07.617Z,37.68
2019-04-11T12:43:07.542Z,38.07
2019-04-11T12:44:07.510Z,38.07
2019-04-11T12:45:07.532Z,35.82
2019-04-11T12:46:07.471Z,36.78
2019-04-11T12:47:08.293Z,37.24
2019-04-11T12:48:07.499Z,37.24
2019-04-11T12:49:07.409Z,38.20
2019-04-11T12:50:07.393Z,39.26
2019-04-11T12:51:07.471Z,39.37
2019-04-11T12:52:07.353Z,39.28
2019-04-11T12:53:07.400Z,38.53
2019-04-11T12:54:07.310Z,37.26
2019-04-11T12:55:07.304Z,37.57
2019-04-11T12:56:07.306Z,38.14
2019-04-11T12:57:07.253Z,37.39
2019-04-11T12:58:07.321Z,37.87
2019-04-11T12:59:07.211Z,38.07
2019-04-11T13:00:07.196Z,36.72
2019-04-11T13:01:07.168Z,37.68
2019-04-11T13:02:07.251Z,37.59
2019-04-11T13:03:07.119Z,37.20
2019-04-11T13:04:07.163Z,36.53
2019-04-11T13:05:07.103Z,36.33
2019-04-11T13:06:07.064Z,35.74
2019-04-11T13:07:07.050Z,35.93
2019-04-11T13:08:07.092Z,36.33
2019-04-11T13:09:07.013Z,35.95
2019-04-11T13:10:06.994Z,36.43
2019-04-11T13:11:06.965Z,36.74
2019-04-11T13:12:07.009Z,37.22
2019-04-11T13:13:06.934Z,36.35
2019-04-11T13:14:06.926Z,34.33
2019-04-11T13:15:06.883Z,35.38
2019-04-11T13:16:12.221Z,36.62
2019-04-11T13:17:06.942Z,35.38
2019-04-11T13:18:06.820Z,36.51
2019-04-11T13:19:06.850Z,36.22
2019-04-11T13:20:06.791Z,37.10
2019-04-11T13:21:06.871Z,37.68
2019-04-11T13:22:06.746Z,36.91
2019-04-11T13:23:06.721Z,36.74
2019-04-11T13:24:06.806Z,37.41
2019-04-11T13:25:06.688Z,36.07
2019-04-11T13:26:06.706Z,36.93
2019-04-11T13:27:06.640Z,37.70
2019-04-11T13:28:06.633Z,37.22
2019-04-11T13:29:06.623Z,37.52
2019-04-11T13:30:06.582Z,37.34
2019-04-11T13:31:06.630Z,37.74
2019-04-11T13:32:06.542Z,36.27
2019-04-11T13:33:06.539Z,35.79
2019-04-11T13:34:06.512Z,36.27
2019-04-11T13:35:06.563Z,33.97
2019-04-11T13:36:06.482Z,34.81
2019-04-11T13:37:06.471Z,35.39
2019-04-11T13:38:06.422Z,36.33
2019-04-11T13:39:06.443Z,35.47
2019-04-11T13:40:06.389Z,35.38
2019-04-11T13:41:06.402Z,36.05
2019-04-11T13:42:06.350Z,35.95
2019-04-11T13:43:06.413Z,36.91
2019-04-11T13:44:06.321Z,36.15
2019-04-11T13:45:06.289Z,35.38
2019-04-11T13:46:06.335Z,35.36
2019-04-11T13:47:06.261Z,35.36
2019-04-11T13:48:06.352Z,36.99
2019-04-11T13:49:06.211Z,36.51
2019-04-11T13:50:16.331Z,37.18
2019-04-11T13:51:07.581Z,36.51
2019-04-11T13:52:06.165Z,36.13
2019-04-11T13:53:06.182Z,37.20
2019-04-11T13:54:06.110Z,37.20
2019-04-11T13:55:06.195Z,36.13
2019-04-11T13:56:06.071Z,35.64
2019-04-11T13:57:06.115Z,35.34
2019-04-11T13:58:06.041Z,35.32
2019-04-11T13:59:06.123Z,35.99
2019-04-11T14:00:06.002Z,36.47
2019-04-11T14:01:05.971Z,36.55
2019-04-11T14:02:05.960Z,36.46
2019-04-11T14:03:06.044Z,36.86
2019-04-11T14:04:08.613Z,36.46
2019-04-11T14:05:05.952Z,36.76
2019-04-11T14:06:05.893Z,38.10
2019-04-11T14:07:05.861Z,39.66
2019-04-11T14:08:05.881Z,39.49
2019-04-11T14:09:05.820Z,37.77
2019-04-11T14:10:05.891Z,36.15
2019-04-11T14:11:05.782Z,36.24
2019-04-11T14:12:05.782Z,35.77
2019-04-11T14:13:05.753Z,35.76
2019-04-11T14:14:05.997Z,34.68
2019-04-11T14:15:06.221Z,35.26
2019-04-11T14:16:07.631Z,36.22
2019-04-11T14:17:05.672Z,35.45
2019-04-11T14:18:05.639Z,35.24
2019-04-11T14:19:07.121Z,36.30
2019-04-11T14:20:05.660Z,35.99
2019-04-11T14:21:05.582Z,36.38
2019-04-11T14:22:05.663Z,36.95
2019-04-11T14:23:05.546Z,37.15
2019-04-11T14:24:05.580Z,37.62
2019-04-11T14:25:05.499Z,37.64
2019-04-11T14:26:05.590Z,38.70
2019-04-11T14:27:05.461Z,38.81
2019-04-11T14:28:08.121Z,37.87
2019-04-11T14:29:05.511Z,37.87
2019-04-11T14:30:05.400Z,37.77
2019-04-11T14:31:05.420Z,36.53
2019-04-11T14:32:05.374Z,36.22
2019-04-11T14:33:05.456Z,37.07
2019-04-11T14:34:05.333Z,36.66
2019-04-11T14:35:05.299Z,36.46
2019-04-11T14:36:05.360Z,37.01
2019-04-11T14:37:05.260Z,38.26
2019-04-11T14:38:05.268Z,38.24
2019-04-11T14:39:05.221Z,40.08
2019-04-11T14:40:05.212Z,39.60
2019-04-11T14:41:05.181Z,39.62
2019-04-11T14:42:05.211Z,38.66
2019-04-11T14:43:05.134Z,37.99
2019-04-11T14:44:05.211Z,37.70
2019-04-11T14:45:05.925Z,37.80
2019-04-11T14:46:06.865Z,38.28
2019-04-11T14:47:06.890Z,39.43
2019-04-11T14:48:05.030Z,38.68
2019-04-11T14:49:05.777Z,38.78
2019-04-11T14:50:04.990Z,37.64
2019-04-11T14:51:04.974Z,37.74
2019-04-11T14:52:04.962Z,37.64
2019-04-11T14:53:05.071Z,38.32
2019-04-11T14:54:04.910Z,39.29
2019-04-11T14:55:04.979Z,37.66
2019-04-11T14:56:04.885Z,36.97
2019-04-11T14:57:04.864Z,37.35
2019-04-11T14:58:04.903Z,39.47
2019-04-11T14:59:04.810Z,39.49
2019-04-11T15:00:04.810Z,38.34
2019-04-11T15:01:04.771Z,37.85
2019-04-11T15:02:04.752Z,37.95
2019-04-11T15:03:04.801Z,37.18
2019-04-11T15:04:04.746Z,36.90
2019-04-11T15:05:06.202Z,36.01
2019-04-11T15:06:04.751Z,35.14
2019-04-11T15:07:04.734Z,35.80
2019-04-11T15:08:04.660Z,35.99
2019-04-11T15:09:04.609Z,36.38
2019-04-11T15:10:04.683Z,36.28
2019-04-11T15:11:04.571Z,36.18
2019-04-11T15:12:04.592Z,36.76
2019-04-11T15:13:04.603Z,37.72
2019-04-11T15:14:04.514Z,37.64
2019-04-11T15:15:04.515Z,38.02
2019-04-11T15:16:04.462Z,37.64
2019-04-11T15:17:04.531Z,37.66
2019-04-11T15:18:04.419Z,36.90
2019-04-11T15:19:04.401Z,37.76
2019-04-11T15:20:04.442Z,37.16
2019-04-11T15:21:06.635Z,37.64
2019-04-11T15:22:06.256Z,37.64
2019-04-11T15:23:06.672Z,37.26
2019-04-11T15:24:07.217Z,35.80
2019-04-11T15:25:05.722Z,36.74
2019-04-11T15:26:07.861Z,37.60
2019-04-11T15:27:04.294Z,37.80
2019-04-11T15:28:04.229Z,37.78
2019-04-11T15:29:04.199Z,37.78
2019-04-11T15:30:04.180Z,37.95
2019-04-11T15:31:05.246Z,38.43
2019-04-11T15:32:04.149Z,39.08
2019-04-11T15:33:04.231Z,39.28
2019-04-11T15:34:04.112Z,40.83
2019-04-11T15:35:04.146Z,40.64
2019-04-11T15:36:04.059Z,40.25
2019-04-11T15:37:04.061Z,39.29
2019-04-11T15:38:04.021Z,38.43
2019-04-11T15:39:04.061Z,39.39
2019-04-11T15:40:04.072Z,38.24
2019-04-11T15:41:03.960Z,38.07
2019-04-11T15:42:03.988Z,37.87
2019-04-11T15:43:03.913Z,37.68
2019-04-11T15:44:04.002Z,38.35
2019-04-11T15:45:03.871Z,39.33
2019-04-11T15:46:03.915Z,37.80
2019-04-11T15:47:03.833Z,37.99
2019-04-11T15:48:03.820Z,37.22
2019-04-11T15:49:03.789Z,37.22
2019-04-11T15:50:03.842Z,37.51
2019-04-11T15:51:06.698Z,37.41
2019-04-11T15:52:06.271Z,37.60
2019-04-11T15:53:06.600Z,37.99
2019-04-11T15:54:04.695Z,37.60
2019-04-11T15:55:05.462Z,38.28
2019-04-11T15:56:07.479Z,37.70
2019-04-11T15:57:03.635Z,37.43
2019-04-11T15:58:03.691Z,39.62
2019-04-11T15:59:03.583Z,37.80
2019-04-11T16:00:03.608Z,37.89
2019-04-11T16:01:03.543Z,37.97
2019-04-11T16:02:03.516Z,38.05
2019-04-11T16:03:03.519Z,38.22
2019-04-11T16:04:03.471Z,39.25
2019-04-11T16:05:03.534Z,39.52
2019-04-11T16:06:03.431Z,40.58
2019-04-11T16:07:03.409Z,40.84
2019-04-11T16:08:03.394Z,41.80
2019-04-11T16:09:03.463Z,41.58
2019-04-11T16:10:03.342Z,42.44
2019-04-11T16:11:03.372Z,43.40
2019-04-11T16:12:03.301Z,43.79
2019-04-11T16:13:03.389Z,44.19
2019-04-11T16:14:03.267Z,43.90
2019-04-11T16:15:03.303Z,43.43
2019-04-11T16:16:07.051Z,42.94
2019-04-11T16:17:03.192Z,42.94
2019-04-11T16:18:03.183Z,43.14
2019-04-11T16:19:03.150Z,42.85
2019-04-11T16:20:03.235Z,43.43
2019-04-11T16:21:03.114Z,43.04
2019-04-11T16:22:03.142Z,42.76
2019-04-11T16:23:03.061Z,42.94
2019-04-11T16:24:03.062Z,44.19
2019-04-11T16:25:03.024Z,44.38
2019-04-11T16:26:03.076Z,44.09
2019-04-11T16:27:02.973Z,43.23
2019-04-11T16:28:06.629Z,42.56
2019-04-11T16:29:02.937Z,42.11
2019-04-11T16:30:03.002Z,42.30
2019-04-11T16:31:02.886Z,42.77
2019-04-11T16:32:02.911Z,42.77
2019-04-11T16:33:03.624Z,42.11
2019-04-11T16:34:02.811Z,42.20
2019-04-11T16:35:02.802Z,42.30
2019-04-11T16:36:02.835Z,41.80
2019-04-11T16:37:02.756Z,42.18
2019-04-11T16:38:02.753Z,42.94
2019-04-11T16:39:02.700Z,42.27
2019-04-11T16:40:02.680Z,41.97
2019-04-11T16:41:02.770Z,42.16
2019-04-11T16:42:02.631Z,42.93
2019-04-11T16:43:02.679Z,42.83
2019-04-11T16:44:02.601Z,42.61
2019-04-11T16:45:02.582Z,42.52
2019-04-11T16:46:02.602Z,43.09
2019-04-11T16:47:02.524Z,44.15
2019-04-11T16:48:02.625Z,44.05
2019-04-11T16:49:02.481Z,43.00
2019-04-11T16:50:02.530Z,43.29
2019-04-11T16:51:02.433Z,43.76
2019-04-11T16:52:02.566Z,44.72
2019-04-11T16:53:02.390Z,44.53
2019-04-11T16:54:02.450Z,44.05
2019-04-11T16:55:02.357Z,44.05
2019-04-11T16:56:02.340Z,44.15
2019-04-11T16:57:02.301Z,43.86
2019-04-11T16:58:02.391Z,43.66
2019-04-11T16:59:02.258Z,44.05
2019-04-11T17:00:02.291Z,43.95
2019-04-11T17:01:02.202Z,44.05
2019-04-11T17:02:02.184Z,43.57
2019-04-11T17:03:02.313Z,43.29
2019-04-11T17:04:02.141Z,44.22
2019-04-11T17:05:02.224Z,44.22
2019-04-11T17:06:02.082Z,45.27
2019-04-11T17:07:02.072Z,45.84
2019-04-11T17:08:02.076Z,45.84
2019-04-11T17:09:02.152Z,46.89
2019-04-11T17:10:02.001Z,45.63